createdAt,value
2016-09-23T00:00:35.311Z,0
2016-09-23T00:01:35.351Z,0
2016-09-23T00:02:35.355Z,0
2016-09-23T00:03:35.373Z,0
2016-09-23T00:04:35.391Z,0
2016-09-23T00:05:35.422Z,0
2016-09-23T00:06:35.449Z,0
2016-09-23T00:07:35.461Z,0
2016-09-23T00:08:35.484Z,0
2016-09-23T00:09:35.508Z,0
2016-09-23T00:10:35.536Z,0
2016-09-23T00:11:35.548Z,0
2016-09-23T00:12:35.577Z,0
2016-09-23T00:13:35.589Z,0
2016-09-23T00:14:35.620Z,0
2016-09-23T00:15:35.643Z,0
2016-09-23T00:16:35.663Z,0
2016-09-23T00:17:35.684Z,0
2016-09-23T00:18:35.702Z,0
2016-09-23T00:19:35.728Z,0
2016-09-23T00:20:35.745Z,0
2016-09-23T00:21:35.767Z,0
2016-09-23T00:22:35.794Z,0
2016-09-23T00:23:35.819Z,0
2016-09-23T00:24:35.838Z,0
2016-09-23T00:25:35.857Z,0
2016-09-23T00:26:35.885Z,0
2016-09-23T00:27:35.905Z,0
2016-09-23T00:28:35.928Z,0
2016-09-23T00:29:36.055Z,0
2016-09-23T00:30:36.063Z,0
2016-09-23T00:31:36.085Z,0
2016-09-23T00:32:36.117Z,0
2016-09-23T00:33:36.214Z,0
2016-09-23T00:34:36.227Z,0
2016-09-23T00:35:36.224Z,0
2016-09-23T00:36:36.234Z,0
2016-09-23T00:37:36.267Z,0
2016-09-23T00:38:36.252Z,0
2016-09-23T00:39:36.259Z,0
2016-09-23T00:40:36.394Z,0
2016-09-23T00:41:36.406Z,0
2016-09-23T00:42:36.411Z,0
2016-09-23T00:43:36.426Z,0
2016-09-23T00:44:36.435Z,0
2016-09-23T00:45:36.429Z,0
2016-09-23T00:46:36.405Z,0
2016-09-23T00:47:36.425Z,0
2016-09-23T00:48:36.431Z,0
2016-09-23T00:49:36.425Z,0
2016-09-23T00:50:36.432Z,0
2016-09-23T00:51:36.440Z,0
2016-09-23T00:52:36.446Z,0
2016-09-23T00:53:36.478Z,0
2016-09-23T00:54:36.494Z,0
2016-09-23T00:55:36.521Z,0
2016-09-23T00:56:36.540Z,0
2016-09-23T00:57:36.563Z,0
2016-09-23T00:58:36.580Z,0
2016-09-23T00:59:36.603Z,0
2016-09-23T01:00:36.628Z,0
2016-09-23T01:01:36.641Z,0
2016-09-23T01:02:36.670Z,0
2016-09-23T01:03:36.691Z,0
2016-09-23T01:04:36.709Z,0
2016-09-23T01:05:36.736Z,0
2016-09-23T01:06:36.761Z,0
2016-09-23T01:07:36.799Z,0
2016-09-23T01:08:36.798Z,0
2016-09-23T01:09:36.825Z,0
2016-09-23T01:10:36.846Z,0
2016-09-23T01:11:36.870Z,0
2016-09-23T01:12:36.891Z,0
2016-09-23T01:13:36.925Z,0
2016-09-23T01:14:36.932Z,0
2016-09-23T01:15:36.957Z,0
2016-09-23T01:16:36.984Z,0
2016-09-23T01:17:36.994Z,0
2016-09-23T01:18:37.022Z,0
2016-09-23T01:19:37.033Z,0
2016-09-23T01:20:37.066Z,0
2016-09-23T01:21:37.087Z,0
2016-09-23T01:22:37.114Z,0
2016-09-23T01:23:37.129Z,0
2016-09-23T01:24:37.149Z,0
2016-09-23T01:25:37.168Z,0
2016-09-23T01:26:37.199Z,0
2016-09-23T01:27:37.227Z,0
2016-09-23T01:28:37.230Z,0
2016-09-23T01:29:37.261Z,0
2016-09-23T01:30:37.281Z,0
2016-09-23T01:31:37.305Z,0
2016-09-23T01:32:37.329Z,0
2016-09-23T01:33:37.354Z,0
2016-09-23T01:34:37.375Z,0
2016-09-23T01:35:37.387Z,0
2016-09-23T01:36:37.411Z,0
2016-09-23T01:37:37.435Z,0
2016-09-23T01:38:37.454Z,0
2016-09-23T01:39:37.487Z,0
2016-09-23T01:40:37.498Z,0
2016-09-23T01:41:37.518Z,0
2016-09-23T01:42:37.538Z,0
2016-09-23T01:43:37.563Z,0
2016-09-23T01:44:37.585Z,0
2016-09-23T01:45:37.604Z,0
2016-09-23T01:46:37.628Z,0
2016-09-23T01:47:37.651Z,0
2016-09-23T01:48:37.673Z,0
2016-09-23T01:49:37.688Z,0
2016-09-23T01:50:37.713Z,0
2016-09-23T01:51:37.733Z,0
2016-09-23T01:52:37.763Z,0
2016-09-23T01:53:37.786Z,0
2016-09-23T01:54:37.804Z,0
2016-09-23T01:55:37.828Z,0
2016-09-23T01:56:37.837Z,0
2016-09-23T01:57:37.865Z,0
2016-09-23T01:58:37.895Z,0
2016-09-23T01:59:37.906Z,0
2016-09-23T02:00:37.933Z,0
2016-09-23T02:01:37.952Z,0
2016-09-23T02:02:38.103Z,0
2016-09-23T02:03:38.415Z,0
2016-09-23T02:04:38.109Z,0
2016-09-23T02:05:38.275Z,0
2016-09-23T02:06:38.280Z,0
2016-09-23T02:07:38.284Z,0
2016-09-23T02:08:38.299Z,0
2016-09-23T02:09:38.297Z,0
2016-09-23T02:10:38.449Z,0
2016-09-23T02:11:38.316Z,0
2016-09-23T02:12:38.325Z,0
2016-09-23T02:13:38.339Z,0
2016-09-23T02:14:38.334Z,0
2016-09-23T02:15:38.423Z,0
2016-09-23T02:16:38.391Z,0
2016-09-23T02:17:38.404Z,0
2016-09-23T02:18:38.421Z,0
2016-09-23T02:19:38.406Z,0
2016-09-23T02:20:38.523Z,0
2016-09-23T02:21:38.459Z,0
2016-09-23T02:22:38.471Z,0
2016-09-23T02:23:38.506Z,0
2016-09-23T02:24:38.827Z,0
2016-09-23T02:25:38.568Z,0
2016-09-23T02:26:38.844Z,0
2016-09-23T02:27:38.545Z,0
2016-09-23T02:28:38.535Z,0
2016-09-23T02:29:38.571Z,0
2016-09-23T02:30:38.614Z,0
2016-09-23T02:31:38.601Z,0
2016-09-23T02:32:38.619Z,0
2016-09-23T02:33:38.970Z,0
2016-09-23T02:34:38.661Z,0
2016-09-23T02:35:38.698Z,0
2016-09-23T02:36:38.712Z,0
2016-09-23T02:37:38.719Z,0
2016-09-23T02:38:38.757Z,0
2016-09-23T02:39:38.770Z,0
2016-09-23T02:40:38.811Z,0
2016-09-23T02:41:38.812Z,0
2016-09-23T02:42:38.841Z,0
2016-09-23T02:43:38.862Z,0
2016-09-23T02:44:38.881Z,0
2016-09-23T02:45:38.913Z,0
2016-09-23T02:46:38.921Z,0
2016-09-23T02:47:38.944Z,0
2016-09-23T02:48:38.963Z,0
2016-09-23T02:49:39.026Z,0
2016-09-23T02:50:39.008Z,0
2016-09-23T02:51:39.032Z,0
2016-09-23T02:52:39.054Z,0
2016-09-23T02:53:39.068Z,0
2016-09-23T02:54:39.100Z,0
2016-09-23T02:55:39.119Z,0
2016-09-23T02:56:39.138Z,0
2016-09-23T02:57:39.163Z,0
2016-09-23T02:58:39.183Z,0
2016-09-23T02:59:39.199Z,0
2016-09-23T03:00:39.228Z,0
2016-09-23T03:01:39.248Z,0
2016-09-23T03:02:39.263Z,0
2016-09-23T03:03:39.287Z,0
2016-09-23T03:04:39.325Z,0
2016-09-23T03:05:39.375Z,0
2016-09-23T03:06:39.355Z,0
2016-09-23T03:07:39.483Z,0
2016-09-23T03:08:39.401Z,0
2016-09-23T03:09:39.423Z,0
2016-09-23T03:10:39.561Z,0
2016-09-23T03:11:39.570Z,0
2016-09-23T03:12:39.578Z,0
2016-09-23T03:13:39.603Z,0
2016-09-23T03:14:39.847Z,0
2016-09-23T03:15:39.655Z,0
2016-09-23T03:16:39.665Z,0
2016-09-23T03:17:39.920Z,0
2016-09-23T03:18:39.695Z,0
2016-09-23T03:19:39.953Z,0
2016-09-23T03:20:39.715Z,0
2016-09-23T03:21:39.721Z,0
2016-09-23T03:22:40.013Z,0
2016-09-23T03:23:39.730Z,0
2016-09-23T03:24:39.745Z,0
2016-09-23T03:25:39.863Z,0
2016-09-23T03:26:39.873Z,0
2016-09-23T03:27:39.815Z,0
2016-09-23T03:28:39.825Z,0
2016-09-23T03:29:39.857Z,0
2016-09-23T03:30:39.878Z,0
2016-09-23T03:31:39.925Z,0
2016-09-23T03:32:39.917Z,0
2016-09-23T03:33:40.253Z,0
2016-09-23T03:34:39.965Z,0
2016-09-23T03:35:39.983Z,0
2016-09-23T03:36:40.002Z,0
2016-09-23T03:37:40.349Z,0
2016-09-23T03:38:40.042Z,0
2016-09-23T03:39:40.396Z,0
2016-09-23T03:40:40.087Z,0
2016-09-23T03:41:40.115Z,0
2016-09-23T03:42:40.131Z,0
2016-09-23T03:43:40.142Z,0
2016-09-23T03:44:40.188Z,0
2016-09-23T03:45:40.196Z,0
2016-09-23T03:46:40.215Z,0
2016-09-23T03:47:40.240Z,0
2016-09-23T03:48:40.251Z,0
2016-09-23T03:49:40.280Z,0
2016-09-23T03:50:40.291Z,0
2016-09-23T03:51:40.321Z,0
2016-09-23T03:52:40.340Z,0
2016-09-23T03:53:40.357Z,0
2016-09-23T03:54:40.385Z,0
2016-09-23T03:55:40.407Z,0
2016-09-23T03:56:40.431Z,0
2016-09-23T03:57:40.448Z,0
2016-09-23T03:58:40.463Z,0
2016-09-23T03:59:40.490Z,0
2016-09-23T04:00:40.518Z,0
2016-09-23T04:01:40.534Z,0
2016-09-23T04:02:40.565Z,0
2016-09-23T04:03:40.580Z,0
2016-09-23T04:04:40.601Z,0
2016-09-23T04:05:40.618Z,0
2016-09-23T04:06:40.639Z,0
2016-09-23T04:07:40.671Z,0
2016-09-23T04:08:40.675Z,0
2016-09-23T04:09:40.706Z,0
2016-09-23T04:10:40.723Z,0
2016-09-23T04:11:40.744Z,0
2016-09-23T04:12:40.773Z,0
2016-09-23T04:13:40.789Z,0
2016-09-23T04:14:40.828Z,0
2016-09-23T04:15:40.835Z,0
2016-09-23T04:16:40.855Z,0
2016-09-23T04:17:40.874Z,0
2016-09-23T04:18:40.898Z,0
2016-09-23T04:19:40.917Z,0
2016-09-23T04:20:40.939Z,0
2016-09-23T04:21:40.957Z,0
2016-09-23T04:22:40.983Z,0
2016-09-23T04:23:41.003Z,0
2016-09-23T04:24:41.024Z,0
2016-09-23T04:25:41.048Z,0
2016-09-23T04:26:41.062Z,0
2016-09-23T04:27:41.089Z,0
2016-09-23T04:28:41.115Z,0
2016-09-23T04:29:41.134Z,0
2016-09-23T04:30:41.153Z,0
2016-09-23T04:31:41.177Z,0
2016-09-23T04:32:41.192Z,0
2016-09-23T04:33:41.221Z,0
2016-09-23T04:34:41.239Z,0
2016-09-23T04:35:41.265Z,0
2016-09-23T04:36:41.283Z,0
2016-09-23T04:37:41.306Z,0
2016-09-23T04:38:41.321Z,0
2016-09-23T04:39:41.340Z,0
2016-09-23T04:40:41.478Z,0
2016-09-23T04:41:41.874Z,0
2016-09-23T04:42:41.491Z,0
2016-09-23T04:43:41.635Z,0
2016-09-23T04:44:41.649Z,0
2016-09-23T04:45:41.657Z,0
2016-09-23T04:46:41.656Z,0
2016-09-23T04:47:41.665Z,0
2016-09-23T04:48:41.675Z,0
2016-09-23T04:49:41.683Z,0
2016-09-23T04:50:41.692Z,0
2016-09-23T04:51:41.807Z,0
2016-09-23T04:52:41.840Z,0
2016-09-23T04:53:41.845Z,0
2016-09-23T04:54:41.853Z,0
2016-09-23T04:55:41.865Z,0
2016-09-23T04:56:41.802Z,0
2016-09-23T04:57:41.727Z,0
2016-09-23T04:58:41.828Z,0
2016-09-23T04:59:41.766Z,0
2016-09-23T05:00:41.900Z,0
2016-09-23T05:01:41.948Z,0
2016-09-23T05:02:41.891Z,0
2016-09-23T05:03:42.004Z,0
2016-09-23T05:04:41.872Z,0
2016-09-23T05:05:41.902Z,0
2016-09-23T05:06:41.926Z,0
2016-09-23T05:07:41.930Z,0
2016-09-23T05:08:41.957Z,0
2016-09-23T05:09:41.974Z,0
2016-09-23T05:10:41.994Z,0
2016-09-23T05:11:42.016Z,0
2016-09-23T05:12:42.038Z,0
2016-09-23T05:13:42.157Z,0
2016-09-23T05:14:42.079Z,0
2016-09-23T05:15:42.434Z,0
2016-09-23T05:16:42.131Z,0
2016-09-23T05:17:42.148Z,0
2016-09-23T05:18:42.174Z,0
2016-09-23T05:19:42.180Z,0
2016-09-23T05:20:42.217Z,0
2016-09-23T05:21:42.228Z,0
2016-09-23T05:22:42.249Z,0
2016-09-23T05:23:42.271Z,0
2016-09-23T05:24:42.293Z,0
2016-09-23T05:25:42.311Z,0
2016-09-23T05:26:42.385Z,0
2016-09-23T05:27:42.355Z,0
2016-09-23T05:28:42.381Z,0
2016-09-23T05:29:42.411Z,0
2016-09-23T05:30:42.421Z,0
2016-09-23T05:31:42.872Z,0
2016-09-23T05:32:42.555Z,0
2016-09-23T05:33:42.583Z,0
2016-09-23T05:34:42.676Z,0
2016-09-23T05:35:42.611Z,0
2016-09-23T05:36:42.629Z,0
2016-09-23T05:37:42.760Z,0
2016-09-23T05:38:42.751Z,0
2016-09-23T05:39:42.732Z,0
2016-09-23T05:40:42.912Z,0
2016-09-23T05:41:42.874Z,0
2016-09-23T05:42:42.881Z,0
2016-09-23T05:43:42.897Z,0
2016-09-23T05:44:42.906Z,5
2016-09-23T05:45:42.912Z,5
2016-09-23T05:46:42.922Z,5
2016-09-23T05:47:42.921Z,5
2016-09-23T05:48:42.933Z,5
2016-09-23T05:49:42.901Z,5
2016-09-23T05:50:42.909Z,5
2016-09-23T05:51:42.910Z,5
2016-09-23T05:52:43.587Z,5
2016-09-23T05:53:42.923Z,5
2016-09-23T05:54:42.933Z,5
2016-09-23T05:55:42.942Z,5
2016-09-23T05:56:42.969Z,5
2016-09-23T05:57:42.986Z,5
2016-09-23T05:58:43.006Z,5
2016-09-23T05:59:43.029Z,5
2016-09-23T06:00:43.053Z,5
2016-09-23T06:01:43.073Z,5
2016-09-23T06:02:43.094Z,5
2016-09-23T06:03:43.129Z,5
2016-09-23T06:04:43.135Z,5
2016-09-23T06:05:43.161Z,5
2016-09-23T06:06:43.180Z,5
2016-09-23T06:07:43.199Z,5
2016-09-23T06:08:43.218Z,5
2016-09-23T06:09:43.234Z,5
2016-09-23T06:10:43.264Z,5
2016-09-23T06:11:43.280Z,5
2016-09-23T06:12:43.300Z,5
2016-09-23T06:13:43.323Z,5
2016-09-23T06:14:43.341Z,5
2016-09-23T06:15:43.368Z,5
2016-09-23T06:16:43.711Z,5
2016-09-23T06:17:43.649Z,5
2016-09-23T06:18:43.437Z,5
2016-09-23T06:19:43.467Z,5
2016-09-23T06:20:43.489Z,5
2016-09-23T06:21:43.494Z,5
2016-09-23T06:22:43.519Z,5
2016-09-23T06:23:43.540Z,5
2016-09-23T06:24:43.877Z,5
2016-09-23T06:25:43.583Z,5
2016-09-23T06:26:43.601Z,5
2016-09-23T06:27:43.616Z,5
2016-09-23T06:28:43.729Z,5
2016-09-23T06:29:43.667Z,5
2016-09-23T06:30:43.688Z,5
2016-09-23T06:31:43.700Z,5
2016-09-23T06:32:43.731Z,5
2016-09-23T06:33:43.750Z,5
2016-09-23T06:34:43.776Z,5
2016-09-23T06:35:43.790Z,5
2016-09-23T06:36:43.801Z,5
2016-09-23T06:37:43.837Z,5
2016-09-23T06:38:43.855Z,5
2016-09-23T06:39:44.192Z,5
2016-09-23T06:40:43.897Z,5
2016-09-23T06:41:43.925Z,5
2016-09-23T06:42:43.941Z,5
2016-09-23T06:43:43.951Z,5
2016-09-23T06:44:43.984Z,5
2016-09-23T06:45:44.006Z,5
2016-09-23T06:46:44.027Z,5
2016-09-23T06:47:44.041Z,5
2016-09-23T06:48:44.059Z,5
2016-09-23T06:49:44.089Z,5
2016-09-23T06:50:44.104Z,5
2016-09-23T06:51:44.130Z,5
2016-09-23T06:52:44.151Z,5
2016-09-23T06:53:44.173Z,5
2016-09-23T06:54:44.195Z,5
2016-09-23T06:55:44.210Z,5
2016-09-23T06:56:44.231Z,5
2016-09-23T06:57:44.251Z,5
2016-09-23T06:58:44.282Z,5
2016-09-23T06:59:44.305Z,5
2016-09-23T07:00:44.321Z,5
2016-09-23T07:01:44.349Z,5
2016-09-23T07:02:44.363Z,5
2016-09-23T07:03:44.388Z,5
2016-09-23T07:04:44.405Z,5
2016-09-23T07:05:44.429Z,5
2016-09-23T07:06:44.451Z,5
2016-09-23T07:07:44.585Z,5
2016-09-23T07:08:44.614Z,5
2016-09-23T07:09:44.601Z,5
2016-09-23T07:10:44.626Z,5
2016-09-23T07:11:44.780Z,5
2016-09-23T07:12:44.789Z,5
2016-09-23T07:13:44.804Z,5
2016-09-23T07:14:44.814Z,5
2016-09-23T07:15:44.826Z,5
2016-09-23T07:16:45.141Z,5
2016-09-23T07:17:44.826Z,5
2016-09-23T07:18:44.888Z,5
2016-09-23T07:19:44.919Z,5
2016-09-23T07:20:44.883Z,5
2016-09-23T07:21:44.906Z,5
2016-09-23T07:22:44.930Z,5
2016-09-23T07:23:44.913Z,5
2016-09-23T07:24:44.923Z,5
2016-09-23T07:25:44.923Z,5
2016-09-23T07:26:44.967Z,5
2016-09-23T07:27:44.977Z,5
2016-09-23T07:28:44.993Z,5
2016-09-23T07:29:45.019Z,5
2016-09-23T07:30:45.022Z,5
2016-09-23T07:31:44.973Z,5
2016-09-23T07:32:45.010Z,10
2016-09-23T07:33:45.029Z,10
2016-09-23T07:34:45.069Z,10
2016-09-23T07:35:45.068Z,10
2016-09-23T07:36:45.080Z,10
2016-09-23T07:37:45.103Z,10
2016-09-23T07:38:45.140Z,10
2016-09-23T07:39:45.141Z,10
2016-09-23T07:40:45.174Z,10
2016-09-23T07:41:45.187Z,10
2016-09-23T07:42:45.217Z,10
2016-09-23T07:43:45.243Z,10
2016-09-23T07:44:45.267Z,10
2016-09-23T07:45:45.283Z,10
2016-09-23T07:46:45.292Z,10
2016-09-23T07:47:45.313Z,10
2016-09-23T07:48:45.341Z,10
2016-09-23T07:49:45.354Z,10
2016-09-23T07:50:45.386Z,10
2016-09-23T07:51:45.395Z,10
2016-09-23T07:52:45.423Z,10
2016-09-23T07:53:45.463Z,10
2016-09-23T07:54:45.466Z,10
2016-09-23T07:55:45.491Z,10
2016-09-23T07:56:45.501Z,5
2016-09-23T07:57:45.527Z,5
2016-09-23T07:58:45.557Z,5
2016-09-23T07:59:45.569Z,5
2016-09-23T08:00:45.598Z,5
2016-09-23T08:01:45.613Z,5
2016-09-23T08:02:45.638Z,5
2016-09-23T08:03:45.666Z,5
2016-09-23T08:04:45.693Z,5
2016-09-23T08:05:45.706Z,5
2016-09-23T08:06:45.724Z,5
2016-09-23T08:07:45.771Z,5
2016-09-23T08:08:45.774Z,5
2016-09-23T08:09:45.793Z,5
2016-09-23T08:10:45.812Z,5
2016-09-23T08:11:45.842Z,5
2016-09-23T08:12:45.852Z,5
2016-09-23T08:13:45.869Z,5
2016-09-23T08:14:45.909Z,5
2016-09-23T08:15:45.920Z,5
2016-09-23T08:16:45.947Z,5
2016-09-23T08:17:45.977Z,5
2016-09-23T08:18:45.985Z,5
2016-09-23T08:19:46.010Z,5
2016-09-23T08:20:46.031Z,5
2016-09-23T08:21:46.369Z,10
2016-09-23T08:22:46.069Z,10
2016-09-23T08:23:46.092Z,10
2016-09-23T08:24:46.112Z,10
2016-09-23T08:25:46.132Z,10
2016-09-23T08:26:46.177Z,10
2016-09-23T08:27:46.180Z,10
2016-09-23T08:28:46.210Z,10
2016-09-23T08:29:46.224Z,10
2016-09-23T08:30:46.247Z,10
2016-09-23T08:31:46.274Z,10
2016-09-23T08:32:46.292Z,10
2016-09-23T08:33:46.327Z,10
2016-09-23T08:34:46.337Z,10
2016-09-23T08:35:46.354Z,10
2016-09-23T08:36:46.382Z,10
2016-09-23T08:37:46.399Z,10
2016-09-23T08:38:46.418Z,10
2016-09-23T08:39:46.447Z,10
2016-09-23T08:40:46.462Z,10
2016-09-23T08:41:46.488Z,10
2016-09-23T08:42:46.621Z,10
2016-09-23T08:43:46.627Z,10
2016-09-23T08:44:46.643Z,10
2016-09-23T08:45:46.672Z,10
2016-09-23T08:46:46.697Z,10
2016-09-23T08:47:46.776Z,10
2016-09-23T08:48:46.795Z,10
2016-09-23T08:49:46.781Z,10
2016-09-23T08:50:46.937Z,10
2016-09-23T08:51:46.815Z,10
2016-09-23T08:52:46.945Z,10
2016-09-23T08:53:46.959Z,10
2016-09-23T08:54:46.962Z,10
2016-09-23T08:55:46.975Z,10
2016-09-23T08:56:46.977Z,10
2016-09-23T08:57:46.993Z,10
2016-09-23T08:58:47.007Z,10
2016-09-23T08:59:46.993Z,10
2016-09-23T09:00:47.018Z,10
2016-09-23T09:01:46.966Z,10
2016-09-23T09:02:47.011Z,10
2016-09-23T09:03:46.975Z,10
2016-09-23T09:04:46.994Z,10
2016-09-23T09:05:47.113Z,10
2016-09-23T09:06:47.398Z,10
2016-09-23T09:07:47.109Z,10
2016-09-23T09:08:47.128Z,10
2016-09-23T09:09:47.155Z,10
2016-09-23T09:10:47.177Z,10
2016-09-23T09:11:47.209Z,10
2016-09-23T09:12:47.208Z,10
2016-09-23T09:13:47.238Z,10
2016-09-23T09:14:47.256Z,10
2016-09-23T09:15:47.276Z,10
2016-09-23T09:16:47.308Z,10
2016-09-23T09:17:47.349Z,10
2016-09-23T09:18:47.346Z,10
2016-09-23T09:19:47.373Z,10
2016-09-23T09:20:47.389Z,10
2016-09-23T09:21:47.416Z,10
2016-09-23T09:22:47.437Z,10
2016-09-23T09:23:47.478Z,10
2016-09-23T09:24:47.508Z,10
2016-09-23T09:25:47.518Z,10
2016-09-23T09:26:47.539Z,10
2016-09-23T09:27:47.562Z,10
2016-09-23T09:28:47.574Z,10
2016-09-23T09:29:47.596Z,10
2016-09-23T09:30:47.622Z,10
2016-09-23T09:31:47.658Z,10
2016-09-23T09:32:47.662Z,10
2016-09-23T09:33:47.695Z,10
2016-09-23T09:34:47.717Z,10
2016-09-23T09:35:47.740Z,10
2016-09-23T09:36:47.768Z,10
2016-09-23T09:37:47.796Z,10
2016-09-23T09:38:47.805Z,10
2016-09-23T09:39:47.833Z,10
2016-09-23T09:40:47.872Z,15
2016-09-23T09:41:47.871Z,15
2016-09-23T09:42:47.903Z,15
2016-09-23T09:43:47.928Z,15
2016-09-23T09:44:47.950Z,15
2016-09-23T09:45:47.972Z,15
2016-09-23T09:46:48.052Z,15
2016-09-23T09:47:48.052Z,15
2016-09-23T09:48:48.061Z,15
2016-09-23T09:49:48.203Z,15
2016-09-23T09:50:48.213Z,15
2016-09-23T09:52:48.245Z,15
2016-09-23T09:53:48.258Z,15
2016-09-23T09:54:48.262Z,15
2016-09-23T09:55:48.276Z,15
2016-09-23T09:56:48.281Z,15
2016-09-23T09:57:48.280Z,15
2016-09-23T09:58:48.292Z,15
2016-09-23T09:59:48.634Z,15
2016-09-23T10:00:48.350Z,15
2016-09-23T10:01:48.358Z,20
2016-09-23T10:02:48.386Z,20
2016-09-23T10:03:48.406Z,20
2016-09-23T10:04:48.418Z,20
2016-09-23T10:05:48.454Z,15
2016-09-23T10:06:48.465Z,15
2016-09-23T10:07:48.480Z,15
2016-09-23T10:08:48.508Z,15
2016-09-23T10:09:48.872Z,15
2016-09-23T10:10:48.573Z,15
2016-09-23T10:11:48.685Z,15
2016-09-23T10:12:48.633Z,15
2016-09-23T10:13:48.638Z,15
2016-09-23T10:14:48.667Z,15
2016-09-23T10:15:48.702Z,15
2016-09-23T10:16:48.726Z,15
2016-09-23T10:17:48.738Z,15
2016-09-23T10:18:48.775Z,15
2016-09-23T10:19:48.794Z,15
2016-09-23T10:20:48.815Z,15
2016-09-23T10:21:48.844Z,15
2016-09-23T10:22:48.864Z,15
2016-09-23T10:23:48.893Z,15
2016-09-23T10:24:48.915Z,15
2016-09-23T10:25:48.942Z,15
2016-09-23T10:26:48.972Z,15
2016-09-23T10:27:48.997Z,15
2016-09-23T10:28:49.009Z,20
2016-09-23T10:29:49.027Z,20
2016-09-23T10:30:49.067Z,20
2016-09-23T10:31:49.088Z,20
2016-09-23T10:32:49.100Z,20
2016-09-23T10:33:49.134Z,20
2016-09-23T10:34:49.152Z,20
2016-09-23T10:35:49.178Z,20
2016-09-23T10:36:49.200Z,20
2016-09-23T10:37:49.240Z,20
2016-09-23T10:38:49.262Z,20
2016-09-23T10:39:49.282Z,20
2016-09-23T10:40:49.292Z,20
2016-09-23T10:41:49.313Z,20
2016-09-23T10:42:49.366Z,20
2016-09-23T10:43:49.382Z,20
2016-09-23T10:44:49.410Z,20
2016-09-23T10:45:49.437Z,20
2016-09-23T10:46:49.467Z,20
2016-09-23T10:47:49.481Z,20
2016-09-23T10:48:49.506Z,20
2016-09-23T10:49:49.530Z,20
2016-09-23T10:50:49.552Z,20
2016-09-23T10:51:49.583Z,20
2016-09-23T10:52:49.596Z,20
2016-09-23T10:53:49.634Z,20
2016-09-23T10:54:49.659Z,20
2016-09-23T10:55:49.696Z,20
2016-09-23T10:56:49.720Z,20
2016-09-23T10:57:49.752Z,20
2016-09-23T10:58:49.761Z,20
2016-09-23T10:59:49.805Z,20
2016-09-23T11:00:49.810Z,20
2016-09-23T11:01:49.849Z,20
2016-09-23T11:02:49.872Z,20
2016-09-23T11:03:49.877Z,20
2016-09-23T11:04:50.046Z,20
2016-09-23T11:05:50.049Z,20
2016-09-23T11:06:50.049Z,20
2016-09-23T11:07:50.224Z,20
2016-09-23T11:08:50.233Z,20
2016-09-23T11:09:50.242Z,20
2016-09-23T11:10:50.243Z,20
2016-09-23T11:11:50.252Z,20
2016-09-23T11:12:50.261Z,20
2016-09-23T11:13:50.271Z,25
2016-09-23T11:14:50.278Z,25
2016-09-23T11:15:50.409Z,15
2016-09-23T11:16:50.328Z,20
2016-09-23T11:17:50.337Z,20
2016-09-23T11:18:50.343Z,20
2016-09-23T11:19:50.390Z,20
2016-09-23T11:20:50.646Z,20
2016-09-23T11:21:50.429Z,25
2016-09-23T11:22:50.438Z,25
2016-09-23T11:23:50.443Z,25
2016-09-23T11:24:50.462Z,25
2016-09-23T11:25:50.457Z,25
2016-09-23T11:26:50.503Z,20
2016-09-23T11:27:50.518Z,20
2016-09-23T11:28:50.547Z,20
2016-09-23T11:29:50.560Z,20
2016-09-23T11:30:50.592Z,20
2016-09-23T11:31:50.619Z,20
2016-09-23T11:32:50.637Z,20
2016-09-23T11:33:50.682Z,20
2016-09-23T11:34:50.688Z,20
2016-09-23T11:35:50.721Z,20
2016-09-23T11:36:50.747Z,20
2016-09-23T11:37:50.770Z,15
2016-09-23T11:38:50.812Z,20
2016-09-23T11:39:50.845Z,20
2016-09-23T11:40:50.849Z,20
2016-09-23T11:41:50.866Z,25
2016-09-23T11:42:51.231Z,20
2016-09-23T11:43:50.919Z,20
2016-09-23T11:44:51.296Z,20
2016-09-23T11:45:50.986Z,15
2016-09-23T11:46:51.001Z,15
2016-09-23T11:47:51.037Z,20
2016-09-23T11:48:51.055Z,20
2016-09-23T11:49:51.105Z,20
2016-09-23T11:50:51.131Z,20
2016-09-23T11:51:51.154Z,20
2016-09-23T11:52:51.180Z,20
2016-09-23T11:53:51.205Z,20
2016-09-23T11:54:51.224Z,20
2016-09-23T11:55:51.268Z,20
2016-09-23T11:56:51.276Z,20
2016-09-23T11:57:51.305Z,20
2016-09-23T11:58:51.346Z,25
2016-09-23T11:59:51.377Z,25
2016-09-23T12:00:51.392Z,20
2016-09-23T12:01:51.415Z,15
2016-09-23T12:02:51.427Z,20
2016-09-23T12:03:51.467Z,25
2016-09-23T12:04:51.520Z,25
2016-09-23T12:05:51.517Z,25
2016-09-23T12:06:51.550Z,30
2016-09-23T12:07:51.587Z,35
2016-09-23T12:08:51.606Z,35
2016-09-23T12:09:51.641Z,30
2016-09-23T12:10:51.666Z,25
2016-09-23T12:11:52.107Z,20
2016-09-23T12:12:51.707Z,20
2016-09-23T12:13:51.755Z,20
2016-09-23T12:14:51.766Z,20
2016-09-23T12:15:51.798Z,20
2016-09-23T12:16:51.823Z,20
2016-09-23T12:17:51.853Z,20
2016-09-23T12:18:51.879Z,25
2016-09-23T12:19:51.903Z,30
2016-09-23T12:20:51.929Z,30
2016-09-23T12:21:51.954Z,30
2016-09-23T12:22:52.430Z,30
2016-09-23T12:23:52.101Z,30
2016-09-23T12:24:52.276Z,30
2016-09-23T12:25:52.291Z,30
2016-09-23T12:26:52.296Z,25
2016-09-23T12:27:52.302Z,25
2016-09-23T12:28:52.305Z,25
2016-09-23T12:29:52.320Z,30
2016-09-23T12:30:52.323Z,30
2016-09-23T12:31:52.331Z,35
2016-09-23T12:32:52.355Z,40
2016-09-23T12:33:52.377Z,45
2016-09-23T12:34:52.469Z,40
2016-09-23T12:35:52.448Z,35
2016-09-23T12:36:52.454Z,35
2016-09-23T12:37:52.471Z,30
2016-09-23T12:38:52.488Z,25
2016-09-23T12:39:52.765Z,25
2016-09-23T12:40:52.497Z,20
2016-09-23T12:41:52.516Z,20
2016-09-23T12:42:52.544Z,20
2016-09-23T12:43:52.569Z,20
2016-09-23T12:44:52.600Z,20
2016-09-23T12:45:52.644Z,20
2016-09-23T12:46:52.677Z,20
2016-09-23T12:47:52.688Z,15
2016-09-23T12:48:52.710Z,15
2016-09-23T12:49:52.769Z,15
2016-09-23T12:50:52.757Z,15
2016-09-23T12:51:52.787Z,15
2016-09-23T12:52:52.826Z,15
2016-09-23T12:53:52.845Z,20
2016-09-23T12:54:53.184Z,20
2016-09-23T12:55:52.917Z,20
2016-09-23T12:56:52.941Z,20
2016-09-23T12:57:52.961Z,20
2016-09-23T12:58:53.011Z,20
2016-09-23T12:59:53.040Z,20
2016-09-23T13:00:53.042Z,20
2016-09-23T13:01:53.077Z,20
2016-09-23T13:02:53.408Z,20
2016-09-23T13:03:53.129Z,20
2016-09-23T13:04:53.167Z,20
2016-09-23T13:05:53.251Z,20
2016-09-23T13:06:53.231Z,20
2016-09-23T13:07:53.242Z,20
2016-09-23T13:08:53.282Z,20
2016-09-23T13:09:53.283Z,20
2016-09-23T13:10:53.328Z,20
2016-09-23T13:11:53.359Z,20
2016-09-23T13:12:53.384Z,20
2016-09-23T13:13:53.638Z,20
2016-09-23T13:14:53.831Z,20
2016-09-23T13:15:53.483Z,25
2016-09-23T13:16:53.500Z,25
2016-09-23T13:17:53.522Z,25
2016-09-23T13:18:53.558Z,25
2016-09-23T13:19:53.587Z,30
2016-09-23T13:20:53.601Z,35
2016-09-23T13:21:53.646Z,40
2016-09-23T13:22:53.684Z,45
2016-09-23T13:23:53.715Z,40
2016-09-23T13:24:53.746Z,35
2016-09-23T13:25:53.756Z,35
2016-09-23T13:26:53.794Z,30
2016-09-23T13:27:53.818Z,25
2016-09-23T13:28:53.844Z,25
2016-09-23T13:29:53.870Z,25
2016-09-23T13:30:53.918Z,25
2016-09-23T13:31:53.933Z,25
2016-09-23T13:32:53.952Z,25
2016-09-23T13:33:53.996Z,25
2016-09-23T13:34:54.016Z,25
2016-09-23T13:35:54.166Z,20
2016-09-23T13:36:54.164Z,15
2016-09-23T13:37:54.322Z,15
2016-09-23T13:38:54.330Z,15
2016-09-23T13:39:54.345Z,20
2016-09-23T13:40:54.339Z,20
2016-09-23T13:41:54.349Z,20
2016-09-23T13:42:54.359Z,25
2016-09-23T13:43:54.362Z,30
2016-09-23T13:44:54.514Z,35
2016-09-23T13:45:54.532Z,35
2016-09-23T13:46:54.526Z,30
2016-09-23T13:47:54.526Z,20
2016-09-23T13:48:54.548Z,20
2016-09-23T13:49:54.516Z,15
2016-09-23T13:50:54.524Z,15
2016-09-23T13:51:54.527Z,15
2016-09-23T13:52:54.538Z,15
2016-09-23T13:53:54.565Z,20
2016-09-23T13:54:54.590Z,20
2016-09-23T13:55:54.620Z,20
2016-09-23T13:56:54.651Z,20
2016-09-23T13:57:54.680Z,20
2016-09-23T13:58:54.707Z,20
2016-09-23T13:59:54.744Z,20
2016-09-23T14:00:54.771Z,20
2016-09-23T14:01:54.784Z,20
2016-09-23T14:02:55.127Z,20
2016-09-23T14:03:54.843Z,20
2016-09-23T14:04:54.878Z,20
2016-09-23T14:05:54.902Z,20
2016-09-23T14:06:54.939Z,20
2016-09-23T14:07:54.968Z,15
2016-09-23T14:08:54.988Z,10
2016-09-23T14:09:55.334Z,10
2016-09-23T14:10:55.045Z,10
2016-09-23T14:11:55.084Z,10
2016-09-23T14:12:55.105Z,10
2016-09-23T14:13:55.132Z,10
2016-09-23T14:14:55.155Z,10
2016-09-23T14:15:55.188Z,10
2016-09-23T14:16:55.245Z,15
2016-09-23T14:17:55.250Z,15
2016-09-23T14:18:55.276Z,15
2016-09-23T14:19:55.312Z,15
2016-09-23T14:20:55.356Z,15
2016-09-23T14:21:55.379Z,15
2016-09-23T14:22:55.392Z,15
2016-09-23T14:23:55.448Z,10
2016-09-23T14:24:55.475Z,15
2016-09-23T14:25:55.498Z,15
2016-09-23T14:26:55.506Z,20
2016-09-23T14:27:55.545Z,20
2016-09-23T14:28:55.585Z,20
2016-09-23T14:29:55.610Z,25
2016-09-23T14:30:55.631Z,25
2016-09-23T14:31:55.671Z,25
2016-09-23T14:32:55.702Z,30
2016-09-23T14:33:55.733Z,30